createdAt,value
2023-03-19T00:02:25.966Z,5.63
2023-03-19T00:06:28.911Z,7.35
2023-03-19T00:10:34.719Z,6.97
2023-03-19T00:14:37.656Z,6.63
2023-03-19T00:18:42.339Z,6.85
2023-03-19T00:22:45.269Z,7.93
2023-03-19T00:26:49.023Z,7.38
2023-03-19T00:30:51.972Z,7.00
2023-03-19T00:34:56.825Z,6.45
2023-03-19T00:38:59.709Z,6.93
2023-03-19T00:43:03.781Z,7.15
2023-03-19T00:47:07.389Z,7.43
2023-03-19T00:51:13.083Z,6.78
2023-03-19T00:55:16.059Z,7.75
2023-03-19T00:59:19.362Z,7.78
2023-03-19T01:03:22.551Z,7.88
2023-03-19T01:07:27.804Z,6.20
2023-03-19T01:11:31.006Z,6.80
2023-03-19T01:15:37.907Z,7.90
2023-03-19T01:19:41.081Z,6.40
2023-03-19T01:23:46.087Z,7.32
2023-03-19T01:27:49.260Z,7.10
2023-03-19T01:31:52.799Z,6.03
2023-03-19T01:35:58.065Z,7.18
2023-03-19T01:40:03.017Z,6.40
2023-03-19T01:44:27.785Z,6.88
2023-03-19T01:48:40.397Z,5.95
2023-03-19T01:52:43.353Z,6.00
2023-03-19T01:56:51.162Z,6.07
2023-03-19T02:00:54.519Z,6.70
2023-03-19T02:05:02.278Z,6.88
2023-03-19T02:09:05.609Z,7.35
2023-03-19T02:13:10.375Z,6.80
2023-03-19T02:17:13.859Z,6.75
2023-03-19T02:21:19.418Z,6.18
2023-03-19T02:25:30.028Z,7.00
2023-03-19T02:29:35.472Z,7.03
2023-03-19T02:33:38.505Z,6.07
2023-03-19T02:37:42.176Z,6.00
2023-03-19T02:41:46.801Z,5.90
2023-03-19T02:45:51.835Z,6.55
2023-03-19T02:49:55.107Z,6.47
2023-03-19T02:53:58.458Z,7.68
2023-03-19T02:58:01.540Z,6.60
2023-03-19T03:02:07.187Z,6.22
2023-03-19T03:06:10.421Z,5.63
2023-03-19T03:10:14.122Z,7.20
2023-03-19T03:14:17.116Z,6.78
2023-03-19T03:18:21.797Z,6.75
2023-03-19T03:22:24.774Z,6.47
2023-03-19T03:26:28.129Z,5.88
2023-03-19T03:30:31.406Z,7.47
2023-03-19T03:34:37.060Z,6.28
2023-03-19T03:38:40.725Z,5.53
2023-03-19T03:42:44.515Z,7.10
2023-03-19T03:46:48.195Z,6.70
2023-03-19T03:50:53.270Z,6.00
2023-03-19T03:54:56.697Z,6.22
2023-03-19T03:58:59.944Z,6.78
2023-03-19T04:03:03.319Z,8.55
2023-03-19T04:07:09.412Z,6.88
2023-03-19T04:11:12.623Z,6.20
2023-03-19T04:15:17.147Z,7.65
2023-03-19T04:19:20.798Z,7.38
2023-03-19T04:23:25.754Z,6.53
2023-03-19T04:27:28.849Z,7.15
2023-03-19T04:31:32.320Z,7.40
2023-03-19T04:35:35.576Z,7.32
2023-03-19T04:39:40.450Z,6.85
2023-03-19T04:43:43.568Z,9.05
2023-03-19T04:47:47.144Z,7.10
2023-03-19T04:51:50.250Z,6.45
2023-03-19T04:55:55.042Z,7.95
2023-03-19T04:59:58.297Z,7.55
2023-03-19T05:04:01.977Z,6.40
2023-03-19T05:08:05.236Z,6.82
2023-03-19T05:12:10.740Z,6.60
2023-03-19T05:16:14.119Z,7.43
2023-03-19T05:20:18.416Z,7.85
2023-03-19T05:24:21.401Z,8.35
2023-03-19T05:28:25.975Z,7.28
2023-03-19T05:32:29.554Z,7.03
2023-03-19T05:36:33.019Z,7.72
2023-03-19T05:40:36.163Z,6.65
2023-03-19T05:44:41.136Z,7.38
2023-03-19T05:48:44.039Z,7.57
2023-03-19T05:52:47.492Z,5.97
2023-03-19T05:56:50.756Z,7.10
2023-03-19T06:00:58.274Z,6.28
2023-03-19T06:05:01.342Z,6.25
2023-03-19T06:09:05.928Z,6.70
2023-03-19T06:13:09.171Z,7.55
2023-03-19T06:17:14.172Z,7.63
2023-03-19T06:21:17.318Z,7.80
2023-03-19T06:25:20.826Z,7.75
2023-03-19T06:29:23.757Z,6.80
2023-03-19T06:33:32.506Z,8.35
2023-03-19T06:37:35.723Z,7.00
2023-03-19T06:41:39.305Z,7.57
2023-03-19T06:45:42.471Z,7.20
2023-03-19T06:49:47.098Z,6.38
2023-03-19T06:53:50.554Z,7.22
2023-03-19T06:57:53.787Z,7.88
2023-03-19T07:01:57.981Z,7.60
2023-03-19T07:06:02.428Z,7.13
2023-03-19T07:10:06.885Z,7.65
2023-03-19T07:14:10.050Z,7.63
2023-03-19T07:18:13.288Z,5.85
2023-03-19T07:22:18.086Z,7.78
2023-03-19T07:26:21.766Z,7.72
2023-03-19T07:30:25.197Z,6.85
2023-03-19T07:34:28.626Z,6.72
2023-03-19T07:38:33.038Z,6.35
2023-03-19T07:42:37.260Z,6.35
2023-03-19T07:46:40.487Z,6.97
2023-03-19T07:50:44.539Z,6.22
2023-03-19T07:54:50.392Z,6.25
2023-03-19T07:58:53.771Z,6.07
2023-03-19T08:02:56.882Z,5.97
2023-03-19T08:07:01.120Z,5.95
2023-03-19T08:11:07.012Z,5.60
2023-03-19T08:15:12.222Z,5.97
2023-03-19T08:19:15.392Z,6.97
2023-03-19T08:23:18.714Z,7.43
2023-03-19T08:27:23.092Z,5.72
2023-03-19T08:31:27.849Z,5.93
2023-03-19T08:35:31.603Z,6.68
2023-03-19T08:39:35.083Z,6.95
2023-03-19T08:43:40.349Z,5.60
2023-03-19T08:47:43.600Z,6.00
2023-03-19T08:51:47.435Z,6.80
2023-03-19T08:55:54.243Z,5.10
2023-03-19T08:59:59.596Z,6.72
2023-03-19T09:04:02.691Z,5.35
2023-03-19T09:08:06.529Z,5.47
2023-03-19T09:12:12.085Z,5.55
2023-03-19T09:16:16.888Z,6.80
2023-03-19T09:20:20.381Z,5.97
2023-03-19T09:24:23.695Z,5.35
2023-03-19T09:28:27.514Z,5.93
2023-03-19T09:32:32.578Z,5.60
2023-03-19T09:36:35.897Z,6.80
2023-03-19T09:40:42.900Z,5.85
2023-03-19T09:44:47.628Z,4.90
2023-03-19T09:48:57.898Z,5.85
2023-03-19T09:53:05.443Z,5.40
2023-03-19T09:57:13.218Z,6.45
2023-03-19T10:01:27.213Z,5.88
2023-03-19T10:05:43.780Z,6.38
2023-03-19T10:10:00.193Z,6.13
2023-03-19T10:14:19.037Z,6.28
2023-03-19T10:18:26.502Z,6.45
2023-03-19T10:22:37.465Z,5.82
2023-03-19T10:26:41.176Z,5.70
2023-03-19T10:30:48.233Z,6.25
2023-03-19T10:34:54.285Z,5.72
2023-03-19T10:38:58.897Z,5.85
2023-03-19T10:43:14.713Z,6.28
2023-03-19T10:47:20.359Z,6.10
2023-03-19T10:51:27.760Z,6.75
2023-03-19T10:55:33.554Z,5.13
2023-03-19T10:59:38.862Z,5.90
2023-03-19T11:03:53.049Z,6.95
2023-03-19T11:08:01.836Z,7.25
2023-03-19T11:12:19.865Z,6.10
2023-03-19T11:16:23.670Z,6.15
2023-03-19T11:20:32.233Z,7.28
2023-03-19T11:24:38.928Z,5.70
2023-03-19T11:28:44.733Z,6.20
2023-03-19T11:33:17.716Z,6.07
2023-03-19T11:41:45.868Z,6.50
2023-03-19T11:46:02.988Z,6.72
2023-03-19T11:50:19.755Z,7.10
2023-03-19T11:54:28.825Z,6.82
2023-03-19T11:58:52.065Z,6.97
2023-03-19T12:03:28.752Z,5.90
2023-03-19T12:07:36.771Z,5.95
2023-03-19T12:11:50.619Z,6.75
2023-03-19T12:16:03.114Z,5.97
2023-03-19T12:20:29.781Z,5.85
2023-03-19T12:24:48.526Z,6.72
2023-03-19T12:29:02.812Z,5.18
2023-03-19T12:33:16.201Z,6.22
2023-03-19T12:37:27.268Z,6.95
2023-03-19T12:41:32.792Z,6.75
2023-03-19T12:45:40.284Z,6.60
2023-03-19T12:49:49.141Z,6.20
2023-03-19T12:53:59.839Z,6.13
2023-03-19T12:58:08.392Z,6.85
2023-03-19T13:02:23.697Z,7.13
2023-03-19T13:06:32.549Z,6.70
2023-03-19T13:10:37.624Z,6.57
2023-03-19T13:14:56.222Z,7.38
2023-03-19T13:19:09.395Z,6.50
2023-03-19T13:23:16.385Z,6.30
2023-03-19T13:27:23.972Z,8.05
2023-03-19T13:31:28.498Z,6.50
2023-03-19T13:35:42.234Z,6.78
2023-03-19T13:39:48.665Z,6.60
2023-03-19T13:44:33.823Z,7.15
2023-03-19T13:48:40.247Z,6.68
2023-03-19T13:52:52.892Z,7.30
2023-03-19T14:01:28.937Z,6.97
2023-03-19T14:05:38.034Z,6.38
2023-03-19T14:09:43.516Z,7.68
2023-03-19T14:13:51.102Z,6.32
2023-03-19T14:18:03.471Z,7.65
2023-03-19T14:22:11.872Z,7.60
2023-03-19T14:26:18.975Z,7.90
2023-03-19T14:30:32.932Z,7.40
2023-03-19T14:34:40.609Z,7.50
2023-03-19T14:38:51.424Z,7.45
2023-03-19T14:43:07.439Z,6.90
2023-03-19T14:47:26.449Z,7.57
2023-03-19T14:51:52.143Z,8.02
2023-03-19T14:55:56.608Z,8.65
2023-03-19T15:00:00.847Z,7.80
2023-03-19T15:04:08.008Z,7.85
2023-03-19T15:08:14.694Z,8.48
2023-03-19T15:12:36.159Z,7.57
2023-03-19T15:16:49.002Z,7.90
2023-03-19T15:25:07.666Z,8.55
2023-03-19T15:29:13.626Z,6.93
2023-03-19T15:33:37.296Z,7.18
2023-03-19T15:37:46.745Z,7.00
2023-03-19T15:41:51.890Z,7.40
2023-03-19T15:45:56.890Z,8.40
2023-03-19T15:50:03.986Z,7.28
2023-03-19T15:54:07.598Z,8.48
2023-03-19T15:58:14.400Z,6.85
2023-03-19T16:02:27.485Z,7.82
2023-03-19T16:06:32.735Z,8.00
2023-03-19T16:10:42.368Z,7.90
2023-03-19T16:14:46.610Z,8.88
2023-03-19T16:18:53.223Z,8.00
2023-03-19T16:22:58.957Z,7.40
2023-03-19T16:27:06.067Z,8.30
2023-03-19T16:31:22.404Z,7.60
2023-03-19T16:35:28.658Z,8.50
2023-03-19T16:39:37.490Z,7.40
2023-03-19T16:43:45.899Z,7.13
2023-03-19T16:47:50.999Z,8.27
2023-03-19T16:51:55.431Z,7.28
2023-03-19T16:56:00.689Z,7.85
2023-03-19T17:00:04.167Z,8.13
2023-03-19T17:04:14.101Z,7.22
2023-03-19T17:08:21.856Z,7.15
2023-03-19T17:12:25.216Z,9.05
2023-03-19T17:16:29.293Z,8.05
2023-03-19T17:20:37.163Z,7.95
2023-03-19T17:24:41.928Z,8.68
2023-03-19T17:28:45.955Z,8.45
2023-03-19T17:32:52.566Z,9.05
2023-03-19T17:36:58.607Z,9.20
2023-03-19T17:41:02.956Z,8.40
2023-03-19T17:45:07.160Z,8.15
2023-03-19T17:49:19.025Z,8.48
2023-03-19T17:53:22.791Z,7.68
2023-03-19T17:57:27.512Z,8.27
2023-03-19T18:01:31.648Z,8.05
2023-03-19T18:05:34.774Z,8.57
2023-03-19T18:09:38.080Z,7.97
2023-03-19T18:13:43.133Z,8.18
2023-03-19T18:17:50.480Z,8.07
2023-03-19T18:21:53.470Z,7.40
2023-03-19T18:25:56.790Z,8.35
2023-03-19T18:30:02.705Z,7.53
2023-03-19T18:34:10.265Z,7.32
2023-03-19T18:38:22.005Z,7.65
2023-03-19T18:42:25.273Z,6.20
2023-03-19T18:46:32.685Z,8.27
2023-03-19T18:50:36.162Z,8.15
2023-03-19T18:54:39.561Z,7.82
2023-03-19T18:58:43.573Z,6.78
2023-03-19T19:02:48.591Z,8.23
2023-03-19T19:06:52.365Z,8.52
2023-03-19T19:10:58.322Z,8.07
2023-03-19T19:15:06.816Z,8.18
2023-03-19T19:19:17.688Z,7.93
2023-03-19T19:23:22.174Z,6.95
2023-03-19T19:27:27.252Z,8.27
2023-03-19T19:31:32.721Z,7.95
2023-03-19T19:35:37.220Z,6.78
2023-03-19T19:39:40.855Z,8.95
2023-03-19T19:43:45.821Z,7.82
2023-03-19T19:47:49.315Z,9.10
2023-03-19T19:51:53.679Z,8.23
2023-03-19T19:55:57.189Z,8.05
2023-03-19T20:00:00.703Z,6.63
2023-03-19T20:04:06.037Z,7.85
2023-03-19T20:08:12.365Z,7.15
2023-03-19T20:12:22.932Z,7.38
2023-03-19T20:16:27.740Z,5.75
2023-03-19T20:20:33.547Z,7.65
2023-03-19T20:24:37.994Z,6.45
2023-03-19T20:28:42.727Z,7.63
2023-03-19T20:32:48.317Z,7.22
2023-03-19T20:36:53.581Z,9.30
2023-03-19T20:40:59.482Z,6.63
2023-03-19T20:45:03.269Z,6.97
2023-03-19T20:49:06.422Z,6.07
2023-03-19T20:53:09.944Z,7.32
2023-03-19T20:57:17.561Z,7.75
2023-03-19T21:01:24.352Z,7.03
2023-03-19T21:05:34.939Z,6.78
2023-03-19T21:09:38.360Z,7.75
2023-03-19T21:13:42.680Z,7.95
2023-03-19T21:17:46.899Z,8.93
2023-03-19T21:21:50.071Z,8.32
2023-03-19T21:25:53.690Z,7.95
2023-03-19T21:29:58.130Z,8.15
2023-03-19T21:34:02.042Z,8.05
2023-03-19T21:38:05.219Z,9.15
2023-03-19T21:42:09.829Z,8.60
2023-03-19T21:46:24.115Z,8.32
2023-03-19T21:50:28.132Z,9.30
2023-03-19T21:54:31.064Z,9.52
2023-03-19T21:58:36.663Z,7.65
2023-03-19T22:02:43.376Z,10.10
2023-03-19T22:06:47.039Z,7.95
2023-03-19T22:10:54.282Z,8.68
2023-03-19T22:14:57.578Z,9.18
2023-03-19T22:19:02.127Z,9.48
2023-03-19T22:23:05.657Z,9.55
2023-03-19T22:27:16.284Z,7.28
2023-03-19T22:31:19.969Z,9.05
2023-03-19T22:35:24.693Z,9.20
2023-03-19T22:39:28.479Z,8.82
2023-03-19T22:43:34.330Z,9.55
2023-03-19T22:47:40.199Z,9.55
2023-03-19T22:51:45.199Z,10.05
2023-03-19T22:55:48.452Z,11.05
2023-03-19T22:59:54.274Z,10.48
2023-03-19T23:03:57.864Z,10.30
2023-03-19T23:08:05.496Z,10.85
2023-03-19T23:12:12.755Z,10.70
2023-03-19T23:16:21.980Z,9.68
2023-03-19T23:20:27.629Z,8.77
2023-03-19T23:24:32.419Z,8.60
2023-03-19T23:28:36.682Z,8.23
2023-03-19T23:32:39.627Z,8.18
2023-03-19T23:36:44.154Z,7.93
2023-03-19T23:40:48.801Z,10.30
2023-03-19T23:44:53.565Z,9.20
2023-03-19T23:48:57.652Z,9.57
2023-03-19T23:53:01.723Z,8.57
2023-03-19T23:57:08.796Z,8.45
